sensor_id;sensor_type;location;lat;lon;timestamp;pressure;altitude;pressure_sealevel;temperature;humidity
13690;BME280;6917;52.194;9.894;2024-01-15T00:01:01;98509.63;;;3.95;91.89
13690;BME280;6917;52.194;9.894;2024-01-15T00:03:26;98512.03;;;3.97;92.27
13690;BME280;6917;52.194;9.894;2024-01-15T00:05:51;98505.47;;;3.80;92.11
13690;BME280;6917;52.194;9.894;2024-01-15T00:08:17;98509.78;;;3.81;92.86
13690;BME280;6917;52.194;9.894;2024-01-15T00:10:42;98506.59;;;3.79;93.08
13690;BME280;6917;52.194;9.894;2024-01-15T00:13:07;98501.78;;;3.68;93.71
13690;BME280;6917;52.194;9.894;2024-01-15T00:15:33;98513.09;;;3.78;93.92
13690;BME280;6917;52.194;9.894;2024-01-15T00:17:58;98504.81;;;3.75;94.32
13690;BME280;6917;52.194;9.894;2024-01-15T00:20:23;98485.59;;;3.68;94.24
13690;BME280;6917;52.194;9.894;2024-01-15T00:22:48;98479.25;;;3.72;94.32
13690;BME280;6917;52.194;9.894;2024-01-15T00:25:14;98488.81;;;3.78;94.08
13690;BME280;6917;52.194;9.894;2024-01-15T00:27:39;98484.31;;;3.74;93.94
13690;BME280;6917;52.194;9.894;2024-01-15T00:30:04;98487.81;;;3.74;94.12
13690;BME280;6917;52.194;9.894;2024-01-15T00:32:29;98493.13;;;3.97;93.71
13690;BME280;6917;52.194;9.894;2024-01-15T00:34:55;98450.31;;;3.73;93.18
13690;BME280;6917;52.194;9.894;2024-01-15T00:37:20;98485.34;;;3.95;93.20
13690;BME280;6917;52.194;9.894;2024-01-15T00:39:45;98468.63;;;3.84;93.06
13690;BME280;6917;52.194;9.894;2024-01-15T00:42:11;98468.91;;;3.74;93.35
13690;BME280;6917;52.194;9.894;2024-01-15T00:44:36;98479.78;;;3.92;92.58
13690;BME280;6917;52.194;9.894;2024-01-15T00:47:01;98475.91;;;3.75;93.25
13690;BME280;6917;52.194;9.894;2024-01-15T00:49:27;98489.28;;;3.89;92.88
13690;BME280;6917;52.194;9.894;2024-01-15T00:51:52;98504.56;;;4.02;92.74
13690;BME280;6917;52.194;9.894;2024-01-15T00:54:17;98491.53;;;4.04;92.24
13690;BME280;6917;52.194;9.894;2024-01-15T00:56:42;98468.47;;;3.81;92.50
13690;BME280;6917;52.194;9.894;2024-01-15T00:59:08;98461.44;;;3.71;93.14
13690;BME280;6917;52.194;9.894;2024-01-15T01:01:35;98443.47;;;3.49;94.02
13690;BME280;6917;52.194;9.894;2024-01-15T01:04:00;98456.22;;;3.66;93.72
13690;BME280;6917;52.194;9.894;2024-01-15T01:06:25;98449.53;;;3.64;94.30
13690;BME280;6917;52.194;9.894;2024-01-15T01:08:51;98454.75;;;3.60;94.79
13690;BME280;6917;52.194;9.894;2024-01-15T01:11:16;98453.78;;;3.47;94.74
13690;BME280;6917;52.194;9.894;2024-01-15T01:13:41;98453.47;;;3.57;94.37
13690;BME280;6917;52.194;9.894;2024-01-15T01:16:06;98451.41;;;3.54;94.18
13690;BME280;6917;52.194;9.894;2024-01-15T01:18:32;98456.84;;;3.72;92.97
13690;BME280;6917;52.194;9.894;2024-01-15T01:20:57;98450.19;;;3.78;91.92
13690;BME280;6917;52.194;9.894;2024-01-15T01:23:22;98430.78;;;3.76;90.77
13690;BME280;6917;52.194;9.894;2024-01-15T01:25:47;98417.47;;;3.79;89.55
13690;BME280;6917;52.194;9.894;2024-01-15T01:28:12;98425.09;;;3.86;88.42
13690;BME280;6917;52.194;9.894;2024-01-15T01:30:38;98421.75;;;3.80;88.24
13690;BME280;6917;52.194;9.894;2024-01-15T01:33:03;98420.81;;;3.94;87.18
13690;BME280;6917;52.194;9.894;2024-01-15T01:35:28;98410.78;;;3.85;86.47
13690;BME280;6917;52.194;9.894;2024-01-15T01:37:53;98429.53;;;3.99;86.04
13690;BME280;6917;52.194;9.894;2024-01-15T01:40:19;98402.19;;;3.75;85.66
13690;BME280;6917;52.194;9.894;2024-01-15T01:42:44;98399.19;;;3.85;85.68
13690;BME280;6917;52.194;9.894;2024-01-15T01:45:10;98403.31;;;3.82;85.88
13690;BME280;6917;52.194;9.894;2024-01-15T01:47:36;98418.09;;;3.85;85.26
13690;BME280;6917;52.194;9.894;2024-01-15T01:50:01;98397.91;;;3.74;84.97
13690;BME280;6917;52.194;9.894;2024-01-15T01:52:27;98400.13;;;3.89;85.00
13690;BME280;6917;52.194;9.894;2024-01-15T01:54:52;98400.59;;;3.74;85.21
13690;BME280;6917;52.194;9.894;2024-01-15T01:57:18;98389.19;;;3.77;85.02
13690;BME280;6917;52.194;9.894;2024-01-15T01:59:43;98390.75;;;3.86;84.72
13690;BME280;6917;52.194;9.894;2024-01-15T02:02:09;98387.13;;;3.91;83.97
13690;BME280;6917;52.194;9.894;2024-01-15T02:04:34;98408.41;;;4.01;84.01
13690;BME280;6917;52.194;9.894;2024-01-15T02:07:01;98393.78;;;4.11;83.31
13690;BME280;6917;52.194;9.894;2024-01-15T02:09:26;98376.63;;;3.98;83.09
13690;BME280;6917;52.194;9.894;2024-01-15T02:11:52;98379.97;;;3.95;83.17
13690;BME280;6917;52.194;9.894;2024-01-15T02:14:17;98384.44;;;3.91;83.14
13690;BME280;6917;52.194;9.894;2024-01-15T02:16:42;98395.38;;;4.03;82.61
13690;BME280;6917;52.194;9.894;2024-01-15T02:19:10;98373.59;;;4.00;82.67
13690;BME280;6917;52.194;9.894;2024-01-15T02:21:39;98398.72;;;4.09;82.74
13690;BME280;6917;52.194;9.894;2024-01-15T02:24:04;98402.22;;;4.09;82.94
13690;BME280;6917;52.194;9.894;2024-01-15T02:26:29;98374.91;;;3.94;82.76
13690;BME280;6917;52.194;9.894;2024-01-15T02:28:55;98372.81;;;3.99;82.96
13690;BME280;6917;52.194;9.894;2024-01-15T02:31:20;98387.44;;;4.07;83.09
13690;BME280;6917;52.194;9.894;2024-01-15T02:33:45;98384.25;;;4.05;82.85
13690;BME280;6917;52.194;9.894;2024-01-15T02:36:14;98394.25;;;4.13;82.68
13690;BME280;6917;52.194;9.894;2024-01-15T02:38:41;98378.03;;;4.13;82.78
13690;BME280;6917;52.194;9.894;2024-01-15T02:41:06;98379.16;;;4.12;82.20
13690;BME280;6917;52.194;9.894;2024-01-15T02:43:31;98378.03;;;4.13;82.21
13690;BME280;6917;52.194;9.894;2024-01-15T02:45:56;98372.50;;;4.09;82.37
13690;BME280;6917;52.194;9.894;2024-01-15T02:48:22;98374.88;;;4.11;82.43
13690;BME280;6917;52.194;9.894;2024-01-15T02:50:47;98376.59;;;4.15;81.95
13690;BME280;6917;52.194;9.894;2024-01-15T02:53:12;98364.69;;;4.25;81.89
13690;BME280;6917;52.194;9.894;2024-01-15T02:55:37;98357.53;;;4.21;81.68
13690;BME280;6917;52.194;9.894;2024-01-15T02:58:03;98369.75;;;4.18;81.36
13690;BME280;6917;52.194;9.894;2024-01-15T03:00:28;98370.75;;;4.22;81.48
13690;BME280;6917;52.194;9.894;2024-01-15T03:02:54;98371.06;;;4.21;81.14
13690;BME280;6917;52.194;9.894;2024-01-15T03:05:19;98350.69;;;4.14;81.01
13690;BME280;6917;52.194;9.894;2024-01-15T03:07:45;98371.06;;;4.12;81.06
13690;BME280;6917;52.194;9.894;2024-01-15T03:10:10;98356.56;;;4.16;81.42
13690;BME280;6917;52.194;9.894;2024-01-15T03:12:35;98358.66;;;4.20;80.72
13690;BME280;6917;52.194;9.894;2024-01-15T03:15:00;98362.78;;;4.26;80.46
13690;BME280;6917;52.194;9.894;2024-01-15T03:17:26;98336.72;;;4.12;80.35
13690;BME280;6917;52.194;9.894;2024-01-15T03:19:51;98359.59;;;4.24;80.32
13690;BME280;6917;52.194;9.894;2024-01-15T03:22:16;98368.00;;;4.31;80.74
13690;BME280;6917;52.194;9.894;2024-01-15T03:24:41;98369.59;;;4.32;80.80
13690;BME280;6917;52.194;9.894;2024-01-15T03:27:07;98376.56;;;4.33;80.91
13690;BME280;6917;52.194;9.894;2024-01-15T03:29:32;98355.97;;;4.20;81.51
13690;BME280;6917;52.194;9.894;2024-01-15T03:31:58;98370.41;;;4.24;81.33
13690;BME280;6917;52.194;9.894;2024-01-15T03:34:23;98371.34;;;4.28;81.63
13690;BME280;6917;52.194;9.894;2024-01-15T03:36:48;98367.22;;;4.30;81.35
13690;BME280;6917;52.194;9.894;2024-01-15T03:39:13;98371.81;;;4.30;81.50
13690;BME280;6917;52.194;9.894;2024-01-15T03:41:38;98364.22;;;4.23;81.81
13690;BME280;6917;52.194;9.894;2024-01-15T03:44:03;98372.66;;;4.13;82.40
13690;BME280;6917;52.194;9.894;2024-01-15T03:46:29;98373.13;;;4.06;82.93
13690;BME280;6917;52.194;9.894;2024-01-15T03:48:54;98356.28;;;4.09;83.13
13690;BME280;6917;52.194;9.894;2024-01-15T03:51:19;98355.97;;;4.20;83.03
13690;BME280;6917;52.194;9.894;2024-01-15T03:53:45;98354.34;;;4.36;82.60
13690;BME280;6917;52.194;9.894;2024-01-15T03:56:10;98349.91;;;4.23;81.95
13690;BME280;6917;52.194;9.894;2024-01-15T03:58:35;98341.16;;;4.17;82.61
13690;BME280;6917;52.194;9.894;2024-01-15T04:01:00;98352.91;;;4.30;82.64
13690;BME280;6917;52.194;9.894;2024-01-15T04:03:28;98377.88;;;4.18;82.89
13690;BME280;6917;52.194;9.894;2024-01-15T04:05:53;98387.41;;;4.15;83.28
13690;BME280;6917;52.194;9.894;2024-01-15T04:08:18;98373.44;;;4.22;83.63
13690;BME280;6917;52.194;9.894;2024-01-15T04:10:44;98363.56;;;4.17;83.75
13690;BME280;6917;52.194;9.894;2024-01-15T04:13:09;98391.34;;;4.44;83.27
13690;BME280;6917;52.194;9.894;2024-01-15T04:15:34;98363.88;;;4.25;83.27
13690;BME280;6917;52.194;9.894;2024-01-15T04:18:00;98380.91;;;4.25;82.80
13690;BME280;6917;52.194;9.894;2024-01-15T04:20:26;98386.28;;;4.34;83.14
13690;BME280;6917;52.194;9.894;2024-01-15T04:22:51;98383.88;;;4.41;82.70
13690;BME280;6917;52.194;9.894;2024-01-15T04:25:17;98390.22;;;4.45;82.61
13690;BME280;6917;52.194;9.894;2024-01-15T04:27:42;98376.09;;;4.31;82.29
13690;BME280;6917;52.194;9.894;2024-01-15T04:30:07;98383.59;;;4.25;82.52
13690;BME280;6917;52.194;9.894;2024-01-15T04:32:32;98379.97;;;4.12;82.96
13690;BME280;6917;52.194;9.894;2024-01-15T04:34:58;98382.97;;;4.28;83.48
13690;BME280;6917;52.194;9.894;2024-01-15T04:37:23;98370.41;;;4.24;83.38
13690;BME280;6917;52.194;9.894;2024-01-15T04:39:48;98355.03;;;4.07;83.74
13690;BME280;6917;52.194;9.894;2024-01-15T04:42:13;98351.38;;;3.94;83.91
13690;BME280;6917;52.194;9.894;2024-01-15T04:44:39;98352.47;;;4.02;83.87
13690;BME280;6917;52.194;9.894;2024-01-15T04:47:04;98363.41;;;4.23;84.02
13690;BME280;6917;52.194;9.894;2024-01-15T04:49:29;98353.25;;;4.11;84.35
13690;BME280;6917;52.194;9.894;2024-01-15T04:51:54;98362.34;;;4.06;84.62
13690;BME280;6917;52.194;9.894;2024-01-15T04:54:20;98347.69;;;4.16;84.44
13690;BME280;6917;52.194;9.894;2024-01-15T04:56:45;98378.16;;;4.34;83.87
13690;BME280;6917;52.194;9.894;2024-01-15T04:59:10;98360.72;;;4.23;83.78
13690;BME280;6917;52.194;9.894;2024-01-15T05:01:36;98354.53;;;4.22;83.44
13690;BME280;6917;52.194;9.894;2024-01-15T05:04:01;98343.88;;;4.08;83.62
13690;BME280;6917;52.194;9.894;2024-01-15T05:06:26;98352.28;;;4.24;83.81
13690;BME280;6917;52.194;9.894;2024-01-15T05:08:51;98377.00;;;4.61;83.38
13690;BME280;6917;52.194;9.894;2024-01-15T05:11:17;98349.41;;;4.38;82.91
13690;BME280;6917;52.194;9.894;2024-01-15T05:13:42;98351.44;;;4.41;83.24
13690;BME280;6917;52.194;9.894;2024-01-15T05:16:07;98339.06;;;4.31;83.34
13690;BME280;6917;52.194;9.894;2024-01-15T05:18:32;98327.34;;;4.01;84.45
13690;BME280;6917;52.194;9.894;2024-01-15T05:20:58;98342.63;;;3.97;85.63
13690;BME280;6917;52.194;9.894;2024-01-15T05:23:23;98345.63;;;4.04;85.84
13690;BME280;6917;52.194;9.894;2024-01-15T05:25:48;98354.84;;;4.03;86.37
13690;BME280;6917;52.194;9.894;2024-01-15T05:28:14;98371.06;;;4.21;85.96
13690;BME280;6917;52.194;9.894;2024-01-15T05:30:39;98345.16;;;3.85;86.26
13690;BME280;6917;52.194;9.894;2024-01-15T05:33:04;98363.59;;;4.09;86.72
13690;BME280;6917;52.194;9.894;2024-01-15T05:35:29;98355.50;;;3.92;87.84
13690;BME280;6917;52.194;9.894;2024-01-15T05:37:54;98359.97;;;3.79;88.88
13690;BME280;6917;52.194;9.894;2024-01-15T05:40:19;98356.28;;;3.83;89.19
13690;BME280;6917;52.194;9.894;2024-01-15T05:42:45;98367.91;;;3.84;89.63
13690;BME280;6917;52.194;9.894;2024-01-15T05:45:10;98364.72;;;3.82;89.70
13690;BME280;6917;52.194;9.894;2024-01-15T05:47:35;98349.31;;;3.82;89.77
13690;BME280;6917;52.194;9.894;2024-01-15T05:50:01;98348.38;;;3.78;89.86
13690;BME280;6917;52.194;9.894;2024-01-15T05:52:26;98354.69;;;3.74;89.72
13690;BME280;6917;52.194;9.894;2024-01-15T05:54:51;98331.19;;;3.83;89.54
13690;BME280;6917;52.194;9.894;2024-01-15T05:57:16;98315.63;;;3.80;89.03
13690;BME280;6917;52.194;9.894;2024-01-15T05:59:42;98342.47;;;3.94;88.70
13690;BME280;6917;52.194;9.894;2024-01-15T06:02:07;98335.94;;;3.86;88.32
13690;BME280;6917;52.194;9.894;2024-01-15T06:04:33;98333.91;;;3.92;88.63
13690;BME280;6917;52.194;9.894;2024-01-15T06:06:58;98342.47;;;3.94;88.44
13690;BME280;6917;52.194;9.894;2024-01-15T06:09:23;98331.34;;;3.86;88.23
13690;BME280;6917;52.194;9.894;2024-01-15T06:11:48;98325.16;;;3.86;88.22
13690;BME280;6917;52.194;9.894;2024-01-15T06:14:14;98344.53;;;3.88;88.15
13690;BME280;6917;52.194;9.894;2024-01-15T06:16:39;98339.94;;;3.80;88.62
13690;BME280;6917;52.194;9.894;2024-01-15T06:19:04;98344.06;;;3.69;89.44
13690;BME280;6917;52.194;9.894;2024-01-15T06:21:29;98339.78;;;3.68;90.00
13690;BME280;6917;52.194;9.894;2024-01-15T06:23:55;98327.22;;;3.54;91.12
13690;BME280;6917;52.194;9.894;2024-01-15T06:26:21;98334.84;;;3.52;91.36
13690;BME280;6917;52.194;9.894;2024-01-15T06:28:47;98352.16;;;3.69;91.74
13690;BME280;6917;52.194;9.894;2024-01-15T06:31:12;98344.06;;;3.69;92.40
13690;BME280;6917;52.194;9.894;2024-01-15T06:33:37;98348.34;;;3.52;92.69
13690;BME280;6917;52.194;9.894;2024-01-15T06:36:03;98362.00;;;3.56;92.59
13690;BME280;6917;52.194;9.894;2024-01-15T06:38:28;98360.09;;;3.74;93.11
13690;BME280;6917;52.194;9.894;2024-01-15T06:40:53;98356.31;;;3.66;92.50
13690;BME280;6917;52.194;9.894;2024-01-15T06:43:18;98370.75;;;3.70;92.60
13690;BME280;6917;52.194;9.894;2024-01-15T06:45:44;98368.53;;;3.81;91.96
13690;BME280;6917;52.194;9.894;2024-01-15T06:48:09;98371.41;;;3.93;91.70
13690;BME280;6917;52.194;9.894;2024-01-15T06:50:34;98369.16;;;3.95;90.52
13690;BME280;6917;52.194;9.894;2024-01-15T06:52:59;98375.06;;;3.80;90.73
13690;BME280;6917;52.194;9.894;2024-01-15T06:55:26;98380.44;;;3.97;90.05
13690;BME280;6917;52.194;9.894;2024-01-15T06:57:52;98378.53;;;4.15;89.99
13690;BME280;6917;52.194;9.894;2024-01-15T07:00:18;98381.84;;;4.03;89.26
13690;BME280;6917;52.194;9.894;2024-01-15T07:02:44;98370.59;;;4.10;88.74
13690;BME280;6917;52.194;9.894;2024-01-15T07:05:09;98361.50;;;4.14;88.06
13690;BME280;6917;52.194;9.894;2024-01-15T07:07:35;98369.47;;;4.20;87.61
13690;BME280;6917;52.194;9.894;2024-01-15T07:10:01;98359.13;;;4.13;87.51
13690;BME280;6917;52.194;9.894;2024-01-15T07:12:26;98364.53;;;4.04;87.77
13690;BME280;6917;52.194;9.894;2024-01-15T07:14:51;98348.19;;;4.09;87.40
13690;BME280;6917;52.194;9.894;2024-01-15T07:17:16;98370.25;;;4.20;87.04
13690;BME280;6917;52.194;9.894;2024-01-15T07:19:44;98370.91;;;4.08;87.01
13690;BME280;6917;52.194;9.894;2024-01-15T07:22:09;98371.38;;;4.10;87.16
13690;BME280;6917;52.194;9.894;2024-01-15T07:24:35;98344.06;;;3.95;87.36
13690;BME280;6917;52.194;9.894;2024-01-15T07:27:00;98363.44;;;3.97;87.94
13690;BME280;6917;52.194;9.894;2024-01-15T07:29:25;98359.63;;;3.89;88.17
13690;BME280;6917;52.194;9.894;2024-01-15T07:31:51;98373.00;;;3.77;89.23
13690;BME280;6917;52.194;9.894;2024-01-15T07:34:16;98382.50;;;4.00;89.71
13690;BME280;6917;52.194;9.894;2024-01-15T07:36:42;98392.19;;;4.01;89.30
13690;BME280;6917;52.194;9.894;2024-01-15T07:39:07;98374.91;;;3.94;89.41
13690;BME280;6917;52.194;9.894;2024-01-15T07:41:32;98389.84;;;3.91;89.24
13690;BME280;6917;52.194;9.894;2024-01-15T07:43:57;98397.28;;;4.03;89.70
13690;BME280;6917;52.194;9.894;2024-01-15T07:46:23;98399.34;;;3.97;89.79
13690;BME280;6917;52.194;9.894;2024-01-15T07:48:48;98387.13;;;3.82;90.44
13690;BME280;6917;52.194;9.894;2024-01-15T07:51:13;98383.47;;;3.78;91.37
13690;BME280;6917;52.194;9.894;2024-01-15T07:53:38;98380.78;;;3.78;91.36
13690;BME280;6917;52.194;9.894;2024-01-15T07:56:03;98379.66;;;3.88;91.13
13690;BME280;6917;52.194;9.894;2024-01-15T07:58:29;98393.94;;;3.88;90.95
13690;BME280;6917;52.194;9.894;2024-01-15T08:00:54;98403.81;;;3.84;91.45
13690;BME280;6917;52.194;9.894;2024-01-15T08:03:19;98396.63;;;3.88;91.77
13690;BME280;6917;52.194;9.894;2024-01-15T08:05:44;98403.50;;;3.77;92.29
13690;BME280;6917;52.194;9.894;2024-01-15T08:08:09;98403.63;;;3.89;92.11
13690;BME280;6917;52.194;9.894;2024-01-15T08:10:35;98404.13;;;4.00;91.70
13690;BME280;6917;52.194;9.894;2024-01-15T08:13:00;98390.44;;;3.88;91.72
13690;BME280;6917;52.194;9.894;2024-01-15T08:15:25;98398.56;;;3.88;91.00
13690;BME280;6917;52.194;9.894;2024-01-15T08:17:50;98396.97;;;3.87;90.74
13690;BME280;6917;52.194;9.894;2024-01-15T08:20:15;98396.16;;;4.04;90.02
13690;BME280;6917;52.194;9.894;2024-01-15T08:22:41;98396.47;;;4.02;89.34
13690;BME280;6917;52.194;9.894;2024-01-15T08:25:06;98402.88;;;4.06;89.26
13690;BME280;6917;52.194;9.894;2024-01-15T08:27:31;98389.34;;;3.89;89.35
13690;BME280;6917;52.194;9.894;2024-01-15T08:29:57;98393.31;;;3.83;90.04
13690;BME280;6917;52.194;9.894;2024-01-15T08:32:22;98400.00;;;3.94;90.22
13690;BME280;6917;52.194;9.894;2024-01-15T08:34:47;98376.63;;;3.98;89.60
13690;BME280;6917;52.194;9.894;2024-01-15T08:37:14;98398.41;;;4.02;89.29
13690;BME280;6917;52.194;9.894;2024-01-15T08:39:39;98396.97;;;4.04;89.02
13690;BME280;6917;52.194;9.894;2024-01-15T08:42:05;98386.47;;;4.11;88.09
13690;BME280;6917;52.194;9.894;2024-01-15T08:44:30;98396.78;;;4.18;87.09
13690;BME280;6917;52.194;9.894;2024-01-15T08:46:55;98362.47;;;4.01;86.38
13690;BME280;6917;52.194;9.894;2024-01-15T08:49:20;98399.66;;;4.30;86.20
13690;BME280;6917;52.194;9.894;2024-01-15T08:51:45;98392.97;;;4.28;85.62
13690;BME280;6917;52.194;9.894;2024-01-15T08:54:11;98391.03;;;4.45;85.39
13690;BME280;6917;52.194;9.894;2024-01-15T08:56:36;98386.81;;;4.10;85.63
13690;BME280;6917;52.194;9.894;2024-01-15T08:59:01;98385.69;;;4.11;85.79
13690;BME280;6917;52.194;9.894;2024-01-15T09:01:26;98391.09;;;4.11;86.20
13690;BME280;6917;52.194;9.894;2024-01-15T09:03:51;98378.53;;;3.89;86.81
13690;BME280;6917;52.194;9.894;2024-01-15T09:06:16;98376.00;;;3.93;87.42
13690;BME280;6917;52.194;9.894;2024-01-15T09:08:42;98395.19;;;4.17;87.23
13690;BME280;6917;52.194;9.894;2024-01-15T09:11:07;98403.63;;;4.24;86.08
13690;BME280;6917;52.194;9.894;2024-01-15T09:13:32;98388.84;;;4.22;85.47
13690;BME280;6917;52.194;9.894;2024-01-15T09:15:58;98383.13;;;4.23;84.62
13690;BME280;6917;52.194;9.894;2024-01-15T09:18:23;98384.41;;;4.26;83.80
13690;BME280;6917;52.194;9.894;2024-01-15T09:20:48;98394.38;;;4.34;83.40
13690;BME280;6917;52.194;9.894;2024-01-15T09:23:13;98396.78;;;4.35;83.02
13690;BME280;6917;52.194;9.894;2024-01-15T09:25:38;98389.81;;;4.34;83.48
13690;BME280;6917;52.194;9.894;2024-01-15T09:28:04;98372.31;;;4.23;83.09
13690;BME280;6917;52.194;9.894;2024-01-15T09:30:29;98384.25;;;4.22;83.57
13690;BME280;6917;52.194;9.894;2024-01-15T09:32:54;98397.25;;;4.29;83.30
13690;BME280;6917;52.194;9.894;2024-01-15T09:35:19;98399.31;;;4.32;83.50
13690;BME280;6917;52.194;9.894;2024-01-15T09:37:44;98409.50;;;4.35;83.34
13690;BME280;6917;52.194;9.894;2024-01-15T09:40:12;98415.69;;;4.44;83.10
13690;BME280;6917;52.194;9.894;2024-01-15T09:42:38;98417.59;;;4.52;82.66
13690;BME280;6917;52.194;9.894;2024-01-15T09:45:03;98414.59;;;4.36;82.87
13690;BME280;6917;52.194;9.894;2024-01-15T09:47:30;98396.63;;;4.32;82.85
13690;BME280;6917;52.194;9.894;2024-01-15T09:49:55;98417.44;;;4.48;83.05
13690;BME280;6917;52.194;9.894;2024-01-15T09:52:23;98416.00;;;4.51;82.85
13690;BME280;6917;52.194;9.894;2024-01-15T09:54:48;98420.63;;;4.51;83.07
13690;BME280;6917;52.194;9.894;2024-01-15T09:57:14;98421.88;;;4.53;83.02
13690;BME280;6917;52.194;9.894;2024-01-15T09:59:40;98402.03;;;4.40;82.50
13690;BME280;6917;52.194;9.894;2024-01-15T10:02:07;98413.63;;;4.41;82.15
13690;BME280;6917;52.194;9.894;2024-01-15T10:04:33;98425.84;;;4.64;82.13
13690;BME280;6917;52.194;9.894;2024-01-15T10:06:58;98410.75;;;4.55;81.83
13690;BME280;6917;52.194;9.894;2024-01-15T10:09:25;98427.44;;;4.65;81.88
13690;BME280;6917;52.194;9.894;2024-01-15T10:11:50;98448.03;;;4.87;81.76
13690;BME280;6917;52.194;9.894;2024-01-15T10:14:16;98416.94;;;4.46;82.06
13690;BME280;6917;52.194;9.894;2024-01-15T10:16:41;98448.59;;;4.46;83.49
13690;BME280;6917;52.194;9.894;2024-01-15T10:19:09;98440.66;;;3.89;86.36
13690;BME280;6917;52.194;9.894;2024-01-15T10:21:35;98434.75;;;3.70;88.17
13690;BME280;6917;52.194;9.894;2024-01-15T10:24:01;98422.53;;;3.72;89.85
13690;BME280;6917;52.194;9.894;2024-01-15T10:26:26;98439.88;;;3.80;90.46
13690;BME280;6917;52.194;9.894;2024-01-15T10:28:51;98440.81;;;3.84;91.41
13690;BME280;6917;52.194;9.894;2024-01-15T10:31:20;98430.00;;;3.84;91.42
13690;BME280;6917;52.194;9.894;2024-01-15T10:33:46;98425.56;;;3.79;92.11
13690;BME280;6917;52.194;9.894;2024-01-15T10:36:11;98439.06;;;3.79;91.71
13690;BME280;6917;52.194;9.894;2024-01-15T10:38:37;98438.78;;;4.07;91.14
13690;BME280;6917;52.194;9.894;2024-01-15T10:41:02;98419.84;;;3.98;89.89
13690;BME280;6917;52.194;9.894;2024-01-15T10:43:28;98424.13;;;4.16;89.06
13690;BME280;6917;52.194;9.894;2024-01-15T10:45:53;98425.41;;;4.10;87.67
13690;BME280;6917;52.194;9.894;2024-01-15T10:48:18;98429.53;;;4.16;86.63
13690;BME280;6917;52.194;9.894;2024-01-15T10:50:44;98434.00;;;4.30;86.20
13690;BME280;6917;52.194;9.894;2024-01-15T10:53:11;98439.88;;;4.32;85.44
13690;BME280;6917;52.194;9.894;2024-01-15T10:55:37;98435.06;;;4.55;84.39
13690;BME280;6917;52.194;9.894;2024-01-15T10:58:03;98436.53;;;4.52;84.07
13690;BME280;6917;52.194;9.894;2024-01-15T11:00:28;98422.53;;;4.41;83.59
13690;BME280;6917;52.194;9.894;2024-01-15T11:02:54;98426.16;;;4.54;83.70
13690;BME280;6917;52.194;9.894;2024-01-15T11:05:22;98419.31;;;4.48;82.99
13690;BME280;6917;52.194;9.894;2024-01-15T11:07:51;98426.34;;;4.49;83.12
13690;BME280;6917;52.194;9.894;2024-01-15T11:13:04;98426.97;;;4.63;82.57
13690;BME280;6917;52.194;9.894;2024-01-15T11:15:30;98410.59;;;4.42;82.25
13690;BME280;6917;52.194;9.894;2024-01-15T11:17:59;98418.06;;;4.45;82.08
13690;BME280;6917;52.194;9.894;2024-01-15T11:20:25;98416.94;;;4.46;81.89
13690;BME280;6917;52.194;9.894;2024-01-15T11:22:51;98416.78;;;4.52;81.58
13690;BME280;6917;52.194;9.894;2024-01-15T11:25:18;98417.13;;;4.50;81.61
13690;BME280;6917;52.194;9.894;2024-01-15T11:27:44;98401.38;;;4.43;81.32
13690;BME280;6917;52.194;9.894;2024-01-15T11:30:12;98413.13;;;4.56;81.13
13690;BME280;6917;52.194;9.894;2024-01-15T11:32:38;98392.97;;;4.36;81.15
13690;BME280;6917;52.194;9.894;2024-01-15T11:35:07;98405.19;;;4.51;81.28
13690;BME280;6917;52.194;9.894;2024-01-15T11:40:17;98390.56;;;4.43;80.52
13690;BME280;6917;52.194;9.894;2024-01-15T11:42:43;98373.41;;;4.31;80.12
13690;BME280;6917;52.194;9.894;2024-01-15T11:45:09;98394.66;;;4.67;79.89
13690;BME280;6917;52.194;9.894;2024-01-15T11:50:02;98386.88;;;4.57;79.56
13690;BME280;6917;52.194;9.894;2024-01-15T11:52:36;98369.84;;;4.56;78.97
13690;BME280;6917;52.194;9.894;2024-01-15T11:55:11;98377.50;;;4.54;79.34
13690;BME280;6917;52.194;9.894;2024-01-15T12:00:05;98371.94;;;4.51;79.07
13690;BME280;6917;52.194;9.894;2024-01-15T12:02:31;98373.22;;;4.44;79.67
13690;BME280;6917;52.194;9.894;2024-01-15T12:04:56;98371.81;;;4.38;79.83
13690;BME280;6917;52.194;9.894;2024-01-15T12:07:22;98370.38;;;4.32;79.48
13690;BME280;6917;52.194;9.894;2024-01-15T12:09:47;98361.47;;;4.32;79.94
13690;BME280;6917;52.194;9.894;2024-01-15T12:12:13;98364.19;;;4.32;79.86
13690;BME280;6917;52.194;9.894;2024-01-15T12:14:43;98358.94;;;4.35;80.08
13690;BME280;6917;52.194;9.894;2024-01-15T12:17:09;98370.84;;;4.43;79.81
13690;BME280;6917;52.194;9.894;2024-01-15T12:19:35;98380.22;;;4.45;80.04
13690;BME280;6917;52.194;9.894;2024-01-15T12:22:01;98351.31;;;4.29;80.10
13690;BME280;6917;52.194;9.894;2024-01-15T12:24:26;98373.41;;;4.31;80.49
13690;BME280;6917;52.194;9.894;2024-01-15T12:26:51;98381.47;;;4.48;80.13
13690;BME280;6917;52.194;9.894;2024-01-15T12:29:17;98368.47;;;4.50;79.53
13690;BME280;6917;52.194;9.894;2024-01-15T12:31:43;98361.22;;;4.71;79.25
13690;BME280;6917;52.194;9.894;2024-01-15T12:34:08;98370.31;;;4.58;79.22
13690;BME280;6917;52.194;9.894;2024-01-15T12:36:33;98387.38;;;4.50;79.01
13690;BME280;6917;52.194;9.894;2024-01-15T12:38:59;98378.94;;;4.52;78.89
13690;BME280;6917;52.194;9.894;2024-01-15T12:41:24;98369.53;;;4.58;78.93
13690;BME280;6917;52.194;9.894;2024-01-15T12:43:49;98383.19;;;4.61;78.66
13690;BME280;6917;52.194;9.894;2024-01-15T12:46:15;98367.94;;;4.57;78.76
13690;BME280;6917;52.194;9.894;2024-01-15T12:48:40;98371.44;;;4.57;78.46
13690;BME280;6917;52.194;9.894;2024-01-15T12:51:06;98370.78;;;4.60;78.36
13690;BME280;6917;52.194;9.894;2024-01-15T12:53:31;98375.06;;;4.70;78.14
13690;BME280;6917;52.194;9.894;2024-01-15T12:55:56;98378.28;;;4.63;78.25
13690;BME280;6917;52.194;9.894;2024-01-15T12:58:21;98371.63;;;4.52;78.28
13690;BME280;6917;52.194;9.894;2024-01-15T13:00:46;98374.19;;;4.48;77.90
13690;BME280;6917;52.194;9.894;2024-01-15T13:03:12;98386.56;;;4.58;77.70
13690;BME280;6917;52.194;9.894;2024-01-15T13:05:38;98370.19;;;4.55;78.00
13690;BME280;6917;52.194;9.894;2024-01-15T13:08:04;98375.59;;;4.46;78.14
13690;BME280;6917;52.194;9.894;2024-01-15T13:10:29;98364.97;;;4.50;77.67
13690;BME280;6917;52.194;9.894;2024-01-15T13:12:55;98370.97;;;4.46;77.69
13690;BME280;6917;52.194;9.894;2024-01-15T13:15:20;98371.66;;;4.35;77.72
13690;BME280;6917;52.194;9.894;2024-01-15T13:17:45;98371.16;;;4.50;77.39
13690;BME280;6917;52.194;9.894;2024-01-15T13:20:11;98371.66;;;4.35;77.66
13690;BME280;6917;52.194;9.894;2024-01-15T13:22:37;98382.59;;;4.47;77.56